Time;durP1;ratioP1;P1;durP2;ratioP2;P2;SDS_P1;SDS_P2;PMS_P1;PMS_P2;Temp;Humidity;BMP_temperature;BMP_pressure;BME280_temperature;BME280_humidity;BME280_pressure;Samples;Min_cycle;Max_cycle;Signal;HPM_P1;HPM_P2
2022/05/19 00:00:04;;;;;;;4.50;2.28;;;14.20;45.70;;;;;;5074903;28;20032;-71
2022/05/19 00:02:31;;;;;;;6.13;2.22;;;14.10;45.40;;;;;;5074549;28;20039;-75
2022/05/19 00:04:58;;;;;;;4.45;2.08;;;14.10;45.60;;;;;;5074256;28;20028;-75
2022/05/19 00:07:24;;;;;;;4.43;1.80;;;14.10;46.10;;;;;;5074400;28;20451;-71
2022/05/19 00:09:52;;;;;;;4.60;2.15;;;14.00;46.10;;;;;;5074864;28;20548;-71
2022/05/19 00:12:22;;;;;;;5.90;2.17;;;14.00;46.10;;;;;;5074446;28;20036;-71
2022/05/19 00:14:48;;;;;;;5.05;2.30;;;13.90;46.20;;;;;;5074891;28;20077;-75
2022/05/19 00:17:15;;;;;;;4.88;2.00;;;13.80;46.10;;;;;;5092240;28;20127;-75
2022/05/19 00:19:42;;;;;;;7.35;2.05;;;13.80;46.50;;;;;;5074612;28;20435;-75
2022/05/19 00:22:08;;;;;;;4.53;2.10;;;13.80;46.60;;;;;;5091365;28;20076;-75
2022/05/19 00:24:35;;;;;;;5.55;1.80;;;13.70;46.60;;;;;;5057676;28;20056;-75
2022/05/19 00:27:01;;;;;;;5.30;1.90;;;13.60;46.70;;;;;;5092258;28;20054;-72
2022/05/19 00:29:27;;;;;;;4.57;1.95;;;13.60;46.80;;;;;;5074637;28;20115;-75
2022/05/19 00:31:55;;;;;;;6.00;2.50;;;13.60;46.90;;;;;;5074126;28;20110;-75
2022/05/19 00:34:23;;;;;;;5.28;2.67;;;13.50;46.90;;;;;;5074562;28;20042;-71
2022/05/19 00:37:09;;;;;;;6.50;1.98;;;13.50;47.20;;;;;;5091151;28;20114;-71
2022/05/19 00:39:36;;;;;;;6.43;2.40;;;13.50;47.30;;;;;;5092586;28;20036;-71
2022/05/19 00:44:47;;;;;;;4.22;1.83;;;13.40;46.60;;;;;;5077282;28;20101;-71
2022/05/19 00:47:20;;;;;;;5.88;2.20;;;13.30;47.10;;;;;;5091938;28;20039;-71
2022/05/19 00:49:48;;;;;;;6.85;2.20;;;13.20;47.40;;;;;;5074414;28;20048;-75
2022/05/19 00:52:40;;;;;;;5.03;2.15;;;13.10;47.80;;;;;;5072545;28;20471;-76
2022/05/19 00:55:15;;;;;;;5.80;2.30;;;13.10;47.80;;;;;;5092463;28;20031;-75
2022/05/19 00:58:05;;;;;;;5.80;2.28;;;13.10;47.90;;;;;;5092317;28;20039;-71
2022/05/19 01:00:33;;;;;;;4.40;1.80;;;13.10;47.90;;;;;;5056909;28;20054;-75
2022/05/19 01:03:01;;;;;;;5.85;2.08;;;13.00;47.90;;;;;;5073997;28;20025;-71
2022/05/19 01:06:00;;;;;;;4.32;1.67;;;12.80;48.10;;;;;;5072825;28;20024;-75
2022/05/19 01:08:45;;;;;;;4.32;2.20;;;12.80;48.10;;;;;;5074119;28;20102;-75
2022/05/19 01:11:15;;;;;;;7.38;2.13;;;12.80;48.20;;;;;;5076655;28;20059;-71
2022/05/19 01:13:42;;;;;;;5.43;1.80;;;12.80;48.30;;;;;;5077802;28;20056;-75
2022/05/19 01:16:10;;;;;;;7.22;1.90;;;12.70;48.50;;;;;;5060815;28;20035;-75
2022/05/19 01:18:37;;;;;;;5.45;2.17;;;12.60;48.40;;;;;;5095745;28;20077;-75
2022/05/19 01:21:06;;;;;;;6.00;2.58;;;12.60;48.50;;;;;;5094424;28;20085;-71
2022/05/19 01:24:12;;;;;;;5.50;1.92;;;12.60;48.50;;;;;;5077393;28;20119;-75
2022/05/19 01:26:57;;;;;;;4.75;2.05;;;12.60;48.60;;;;;;5095158;28;20071;-71
2022/05/19 01:29:27;;;;;;;4.68;2.03;;;12.50;48.50;;;;;;5077593;28;20032;-71
2022/05/19 01:32:22;;;;;;;5.20;1.75;;;12.50;48.60;;;;;;5060325;28;20489;-75
2022/05/19 01:34:48;;;;;;;4.97;2.00;;;12.50;48.70;;;;;;5077519;28;20042;-75
2022/05/19 01:37:14;;;;;;;4.97;1.80;;;12.40;48.80;;;;;;5076246;28;20085;-75
2022/05/19 01:39:44;;;;;;;3.85;1.63;;;12.40;49.70;;;;;;5077226;28;20101;-74
2022/05/19 01:43:07;;;;;;;3.70;1.67;;;12.30;48.90;;;;;;5076984;28;20040;-70
2022/05/19 01:46:29;;;;;;;4.55;2.20;;;12.30;48.90;;;;;;5095025;28;20504;-74
2022/05/19 01:49:16;;;;;;;4.53;1.60;;;12.20;48.80;;;;;;5095144;28;20044;-70
2022/05/19 01:51:54;;;;;;;6.13;2.22;;;12.20;48.80;;;;;;5094013;28;20119;-70
2022/05/19 01:55:03;;;;;;;4.82;2.13;;;12.10;49.30;;;;;;5077075;28;20452;-74
2022/05/19 01:58:01;;;;;;;8.43;2.20;;;12.10;49.40;;;;;;5094901;28;20090;-71
2022/05/19 02:00:29;;;;;;;3.95;1.77;;;12.10;49.50;;;;;;5059629;28;20444;-74
2022/05/19 02:03:21;;;;;;;4.57;1.88;;;12.00;49.40;;;;;;5076885;28;20050;-71
2022/05/19 02:06:45;;;;;;;4.97;2.25;;;12.00;49.60;;;;;;5059218;28;20036;-70
2022/05/19 02:09:50;;;;;;;6.00;1.90;;;12.00;49.60;;;;;;5076826;28;20473;-74
2022/05/19 02:12:16;;;;;;;6.47;2.15;;;11.90;49.60;;;;;;5076378;28;20056;-71
2022/05/19 02:15:03;;;;;;;;;;;11.90;49.80;;;;;;5095645;28;20102;-74
2022/05/19 02:17:31;;;;;;;5.30;1.55;;;11.80;49.00;;;;;;5094475;28;19916;-75
2022/05/19 02:20:20;;;;;;;6.30;2.03;;;11.60;49.40;;;;;;5059714;28;20554;-71
2022/05/19 02:22:46;;;;;;;7.00;1.77;;;11.50;49.80;;;;;;5075403;28;20047;-74
2022/05/19 02:25:42;;;;;;;4.30;1.80;;;11.40;49.90;;;;;;5059618;28;20043;-75
2022/05/19 02:28:31;;;;;;;6.13;1.70;;;11.20;50.10;;;;;;5057298;28;20044;-71
2022/05/19 02:30:58;;;;;;;5.35;1.80;;;11.10;50.00;;;;;;5056192;28;20444;-70
2022/05/19 02:33:25;;;;;;;6.13;2.25;;;11.00;50.00;;;;;;5055958;28;20035;-70
2022/05/19 02:35:51;;;;;;;7.38;2.17;;;10.90;50.30;;;;;;5039098;28;20119;-71
2022/05/19 02:38:20;;;;;;;4.80;2.17;;;11.00;50.50;;;;;;5055336;28;20060;-74
2022/05/19 02:40:47;;;;;;;4.45;2.03;;;10.90;50.50;;;;;;5055715;28;20044;-70
2022/05/19 02:43:15;;;;;;;5.97;2.53;;;10.90;50.80;;;;;;5039375;28;20033;-71
2022/05/19 02:45:48;;;;;;;6.22;2.55;;;10.90;51.00;;;;;;5055469;28;20032;-70
2022/05/19 02:48:16;;;;;;;4.75;1.70;;;10.80;50.80;;;;;;5056604;28;20054;-71
2022/05/19 02:50:43;;;;;;;12.15;2.50;;;10.80;51.10;;;;;;5055740;28;20505;-75
2022/05/19 02:53:13;;;;;;;6.78;2.38;;;10.80;51.10;;;;;;5055142;28;20036;-71
2022/05/19 02:55:40;;;;;;;4.63;2.15;;;10.80;51.40;;;;;;5055498;28;20033;-70
2022/05/19 02:58:08;;;;;;;5.32;2.45;;;10.80;51.50;;;;;;5055540;28;20028;-74
2022/05/19 03:00:34;;;;;;;10.15;2.55;;;10.80;51.70;;;;;;5055317;28;20076;-71
2022/05/19 03:03:00;;;;;;;5.70;2.58;;;10.80;51.80;;;;;;5055554;28;20408;-71
2022/05/19 03:05:31;;;;;;;6.63;2.08;;;10.80;51.90;;;;;;5038550;28;20097;-74
2022/05/19 03:07:57;;;;;;;5.32;2.05;;;10.70;52.00;;;;;;5054915;28;20028;-74
2022/05/19 03:10:24;;;;;;;14.25;2.20;;;10.70;52.20;;;;;;5073130;28;20437;-71
2022/05/19 03:13:29;;;;;;;5.38;2.63;;;10.70;51.90;;;;;;5055440;28;20039;-75
2022/05/19 03:15:55;;;;;;;4.20;2.08;;;10.70;51.80;;;;;;5073013;28;20040;-74
2022/05/19 03:18:21;;;;;;;9.13;2.65;;;10.70;52.00;;;;;;5055343;28;20033;-75
2022/05/19 03:20:47;;;;;;;7.40;3.00;;;10.60;52.10;;;;;;5054890;28;20040;-75
2022/05/19 03:23:14;;;;;;;4.75;2.20;;;10.60;52.20;;;;;;5037855;28;20036;-74
2022/05/19 03:25:40;;;;;;;6.38;2.55;;;10.50;52.30;;;;;;5075665;28;20067;-71
2022/05/19 03:28:06;;;;;;;9.02;2.38;;;10.60;52.30;;;;;;5075364;28;20024;-71
2022/05/19 03:30:35;;;;;;;5.22;2.10;;;10.60;52.30;;;;;;5074950;28;20041;-75
2022/05/19 03:33:02;;;;;;;6.43;2.47;;;10.60;52.30;;;;;;5074879;28;20116;-71
2022/05/19 03:35:28;;;;;;;6.75;2.15;;;10.50;53.30;;;;;;5074777;28;20028;-71
2022/05/19 03:37:54;;;;;;;5.43;2.40;;;10.50;52.50;;;;;;5074297;28;20043;-71
2022/05/19 03:40:25;;;;;;;4.90;2.03;;;10.50;52.50;;;;;;5057993;28;20028;-71
2022/05/19 03:42:51;;;;;;;11.52;2.38;;;10.50;52.60;;;;;;5058267;28;20036;-74
2022/05/19 03:45:17;;;;;;;4.68;2.10;;;10.50;52.80;;;;;;5058128;28;20036;-71
2022/05/19 03:47:43;;;;;;;;;;;10.40;52.30;;;;;;5075292;28;20040;-75
2022/05/19 03:50:10;;;;;;;8.38;2.53;;;10.50;52.30;;;;;;5093034;28;19922;-71
2022/05/19 03:52:39;;;;;;;8.73;2.42;;;10.40;52.50;;;;;;5092101;28;20040;-71
2022/05/19 03:55:06;;;;;;;6.40;2.10;;;10.50;52.80;;;;;;5074461;28;20032;-75
2022/05/19 03:57:32;;;;;;;4.65;2.08;;;10.40;52.30;;;;;;5074739;28;20036;-75
2022/05/19 03:59:59;;;;;;;6.75;2.25;;;10.50;52.90;;;;;;5074785;28;20028;-75
2022/05/19 04:02:25;;;;;;;6.70;2.30;;;10.50;53.00;;;;;;5092307;28;20436;-71
2022/05/19 04:04:51;;;;;;;5.18;2.03;;;10.40;53.10;;;;;;5074940;28;20487;-71
2022/05/19 04:07:17;;;;;;;7.20;2.33;;;10.40;53.10;;;;;;5091689;28;20044;-71
2022/05/19 04:09:43;;;;;;;4.70;2.10;;;10.40;53.30;;;;;;5074783;28;20046;-74
2022/05/19 04:12:10;;;;;;;6.15;2.47;;;10.40;53.30;;;;;;5074287;28;20115;-74
2022/05/19 04:14:36;;;;;;;6.60;2.40;;;10.40;52.90;;;;;;5093084;28;20035;-71
2022/05/19 04:17:05;;;;;;;8.57;2.40;;;10.40;53.70;;;;;;5092407;28;20033;-75
2022/05/19 04:19:31;;;;;;;8.75;2.25;;;10.40;53.80;;;;;;5074872;28;20040;-71
2022/05/19 04:21:57;;;;;;;8.48;2.63;;;10.50;53.70;;;;;;5073547;28;20400;-71
2022/05/19 04:24:23;;;;;;;7.97;2.25;;;10.50;53.70;;;;;;5092707;28;20036;-74
2022/05/19 04:26:50;;;;;;;16.23;2.15;;;10.50;53.70;;;;;;5092166;28;20059;-74
2022/05/19 04:29:16;;;;;;;10.90;2.38;;;10.60;53.70;;;;;;5057914;28;20420;-71
2022/05/19 04:31:49;;;;;;;6.18;2.20;;;10.60;53.70;;;;;;5074041;28;20052;-71
2022/05/19 04:34:21;;;;;;;7.03;2.08;;;10.60;54.00;;;;;;5074197;28;20036;-74
2022/05/19 04:36:47;;;;;;;6.50;2.20;;;10.60;54.10;;;;;;5092152;28;20039;-74
2022/05/19 04:39:14;;;;;;;9.30;2.25;;;10.60;54.10;;;;;;5073732;28;20116;-71
2022/05/19 04:41:40;;;;;;;9.85;2.58;;;10.60;54.00;;;;;;5073842;28;20063;-71
2022/05/19 04:44:06;;;;;;;9.45;3.25;;;10.60;54.00;;;;;;5059655;28;20124;-74
2022/05/19 04:46:32;;;;;;;8.10;2.58;;;10.60;54.00;;;;;;5078067;28;20028;-71
2022/05/19 04:48:58;;;;;;;5.40;2.38;;;10.70;54.10;;;;;;5078173;28;20032;-71
2022/05/19 04:51:24;;;;;;;5.07;2.20;;;10.70;54.20;;;;;;5077950;28;20044;-74
2022/05/19 04:53:50;;;;;;;9.02;2.17;;;10.70;54.20;;;;;;5095560;28;20031;-74
2022/05/19 04:56:17;;;;;;;7.85;2.30;;;10.80;54.30;;;;;;5095954;28;20507;-71
2022/05/19 04:58:43;;;;;;;7.78;2.50;;;10.80;54.40;;;;;;5096356;28;20485;-71
2022/05/19 05:01:09;;;;;;;5.72;2.70;;;10.80;54.40;;;;;;5077641;28;20082;-74
2022/05/19 05:03:35;;;;;;;5.93;2.40;;;10.90;54.40;;;;;;5077993;28;20503;-75
2022/05/19 05:06:01;;;;;;;7.78;2.38;;;11.00;54.80;;;;;;5077554;28;20429;-74
2022/05/19 05:08:30;;;;;;;5.35;2.38;;;11.00;54.70;;;;;;5077060;28;20486;-71
2022/05/19 05:10:56;;;;;;;9.50;2.95;;;11.10;54.90;;;;;;5095659;28;20554;-74
2022/05/19 05:13:22;;;;;;;6.55;2.95;;;11.10;55.30;;;;;;5060881;28;20032;-75
2022/05/19 05:15:48;;;;;;;5.93;2.53;;;11.10;55.70;;;;;;5060749;28;20040;-74
2022/05/19 05:18:14;;;;;;;10.40;3.45;;;11.20;55.90;;;;;;5061053;28;20438;-71
2022/05/19 05:20:43;;;;;;;13.87;3.70;;;11.20;56.00;;;;;;5095467;28;20619;-74
2022/05/19 05:23:13;;;;;;;7.72;3.10;;;11.30;56.40;;;;;;5060052;28;20028;-74
2022/05/19 05:25:42;;;;;;;9.05;3.20;;;11.40;56.20;;;;;;5095126;28;20083;-71
2022/05/19 05:28:13;;;;;;;10.32;3.28;;;11.50;56.50;;;;;;5060802;28;20031;-72
2022/05/19 05:30:39;;;;;;;6.00;3.33;;;11.60;56.50;;;;;;5060434;28;20037;-75
2022/05/19 05:33:09;;;;;;;8.98;2.88;;;11.70;57.20;;;;;;5077568;28;20329;-72
2022/05/19 05:35:35;;;;;;;7.47;3.40;;;11.80;56.60;;;;;;5076994;28;20120;-71
2022/05/19 05:38:02;;;;;;;7.68;3.17;;;12.00;56.50;;;;;;5094803;28;20060;-74
2022/05/19 05:40:28;;;;;;;;;;;12.10;56.10;;;;;;5077496;28;20081;-71
2022/05/19 05:42:55;;;;;;;9.93;3.20;;;12.20;55.40;;;;;;5060528;28;19916;-72
2022/05/19 05:45:21;;;;;;;;;;;12.30;56.00;;;;;;5095544;28;20036;-74
2022/05/19 05:47:47;;;;;;;10.00;3.28;;;12.40;55.10;;;;;;5095303;28;19991;-74
2022/05/19 05:50:14;;;;;;;7.90;3.30;;;12.50;55.90;;;;;;5077186;28;20028;-72
2022/05/19 05:52:40;;;;;;;7.15;3.22;;;12.50;56.20;;;;;;5094902;28;20078;-74
2022/05/19 05:55:07;;;;;;;6.97;3.10;;;12.60;56.30;;;;;;5075952;28;20107;-72
2022/05/19 05:57:33;;;;;;;6.75;3.28;;;12.80;55.60;;;;;;5076846;28;20043;-71
2022/05/19 06:00:01;;;;;;;9.25;3.60;;;12.80;56.10;;;;;;5077031;28;20370;-72
2022/05/19 06:02:27;;;;;;;6.57;3.65;;;13.00;56.10;;;;;;5094559;28;20040;-72
2022/05/19 06:04:55;;;;;;;6.72;3.55;;;13.20;56.30;;;;;;5077176;28;20146;-74
2022/05/19 06:07:21;;;;;;;7.40;3.38;;;13.20;56.10;;;;;;5076479;28;20040;-74
2022/05/19 06:09:52;;;;;;;7.97;3.45;;;13.30;56.10;;;;;;5076126;28;20047;-72
2022/05/19 06:12:18;;;;;;;6.50;3.22;;;13.50;55.80;;;;;;5094559;28;20478;-72
2022/05/19 06:14:44;;;;;;;11.48;3.38;;;13.60;55.40;;;;;;5076898;28;20032;-72
2022/05/19 06:17:10;;;;;;;9.20;3.47;;;13.80;55.20;;;;;;5076428;28;20040;-72
2022/05/19 06:19:39;;;;;;;7.78;3.28;;;13.90;54.80;;;;;;5059983;28;20070;-72
2022/05/19 06:22:09;;;;;;;10.05;3.45;;;14.10;54.70;;;;;;5076307;28;20040;-71
2022/05/19 06:24:35;;;;;;;6.75;3.03;;;14.20;54.40;;;;;;5075756;28;20036;-75
2022/05/19 06:27:01;;;;;;;9.63;3.08;;;14.40;54.00;;;;;;5059241;28;20060;-75
2022/05/19 06:29:27;;;;;;;10.50;3.90;;;14.40;53.70;;;;;;5076452;28;20032;-72
2022/05/19 06:31:53;;;;;;;7.07;2.83;;;14.60;53.50;;;;;;5094115;28;20040;-75
2022/05/19 06:34:19;;;;;;;5.47;2.97;;;14.70;53.20;;;;;;5094457;28;20493;-71
2022/05/19 06:36:46;;;;;;;10.85;3.28;;;14.80;52.60;;;;;;5076026;28;20040;-71
2022/05/19 06:39:13;;;;;;;6.57;2.75;;;15.00;52.40;;;;;;5058842;28;20040;-74
2022/05/19 06:44:24;;;;;;;6.72;2.75;;;15.30;52.20;;;;;;5078662;28;20552;-75
2022/05/19 06:46:56;;;;;;;8.38;2.72;;;15.60;51.60;;;;;;5075710;28;20032;-74
2022/05/19 06:49:23;;;;;;;5.15;2.50;;;15.80;51.00;;;;;;5059520;28;20554;-72
2022/05/19 06:51:49;;;;;;;;;;;15.90;50.80;;;;;;5076188;28;20409;-74
2022/05/19 06:54:15;;;;;;;7.13;2.38;;;16.00;50.60;;;;;;5058503;28;19920;-71
2022/05/19 06:56:42;;;;;;;7.60;3.05;;;16.20;50.40;;;;;;5058742;28;20525;-72
2022/05/19 06:59:08;;;;;;;9.55;2.70;;;16.30;49.70;;;;;;5094171;28;20032;-72
2022/05/19 07:01:34;;;;;;;8.98;2.30;;;16.70;49.30;;;;;;5075392;28;20040;-75
2022/05/19 07:04:00;;;;;;;7.15;2.80;;;16.80;49.10;;;;;;5075875;28;20396;-72
2022/05/19 07:06:30;;;;;;;;;;;17.10;48.50;;;;;;5093945;28;20381;-72
2022/05/19 07:08:56;;;;;;;5.72;2.10;;;17.30;48.00;;;;;;5057680;28;19938;-75
2022/05/19 07:14:08;;;;;;;7.28;2.67;;;17.80;47.10;;;;;;5078426;28;20446;-74
2022/05/19 07:16:35;;;;;;;7.03;2.80;;;17.90;47.00;;;;;;5074915;28;20032;-72
2022/05/19 07:21:47;;;;;;;6.05;2.38;;;17.90;47.10;;;;;;5093101;28;20054;-72
2022/05/19 07:24:32;;;;;;;6.97;2.05;;;17.90;46.50;;;;;;5074684;28;20115;-72
2022/05/19 07:26:59;;;;;;;5.75;2.40;;;18.00;46.50;;;;;;5074975;28;20093;-76
2022/05/19 07:29:26;;;;;;;9.18;2.83;;;18.10;46.50;;;;;;5075249;28;20032;-74
2022/05/19 07:32:00;;;;;;;5.65;2.08;;;18.10;46.60;;;;;;5074700;28;20032;-76
2022/05/19 07:34:30;;;;;;;6.93;2.40;;;18.30;46.00;;;;;;5076240;28;20093;-76
2022/05/19 07:36:57;;;;;;;4.97;2.08;;;18.50;46.30;;;;;;5074675;28;20024;-72
2022/05/19 07:39:24;;;;;;;4.18;1.90;;;18.50;44.80;;;;;;5092591;28;20043;-72
2022/05/19 07:41:53;;;;;;;8.45;2.35;;;18.50;44.60;;;;;;5092749;28;20063;-72
2022/05/19 07:44:19;;;;;;;9.13;2.05;;;18.60;44.90;;;;;;5075226;28;20081;-75
2022/05/19 07:46:45;;;;;;;7.32;2.10;;;18.70;44.70;;;;;;5074622;28;20036;-76
2022/05/19 07:49:11;;;;;;;;;;;18.90;44.40;;;;;;5058865;28;20066;-75
2022/05/19 07:51:40;;;;;;;8.93;2.63;;;19.00;44.40;;;;;;5074563;28;19923;-72
2022/05/19 07:54:26;;;;;;;11.65;2.67;;;19.00;44.00;;;;;;5074025;28;20040;-75
2022/05/19 07:56:53;;;;;;;4.57;2.00;;;19.10;44.10;;;;;;5074455;28;20401;-72
2022/05/19 07:59:20;;;;;;;4.88;1.77;;;19.30;43.80;;;;;;5074999;28;20428;-73
2022/05/19 08:01:53;;;;;;;5.90;2.00;;;19.30;43.30;;;;;;5057414;28;20024;-72
2022/05/19 08:04:21;;;;;;;5.93;2.00;;;19.50;42.80;;;;;;5093154;28;20431;-72
2022/05/19 08:06:48;;;;;;;6.25;1.95;;;19.60;42.50;;;;;;5057559;28;20028;-76
2022/05/19 08:12:00;;;;;;;4.68;1.73;;;19.80;41.90;;;;;;5092451;28;20047;-76
2022/05/19 08:17:10;;;;;;;5.45;1.90;;;19.90;42.10;;;;;;5092338;28;19997;-73
2022/05/19 08:19:37;;;;;;;;;;;20.00;40.40;;;;;;5057703;28;20085;-73
2022/05/19 08:22:08;;;;;;;;;;;20.10;41.10;;;;;;5074817;28;19927;-73
2022/05/19 08:24:35;;;;;;;5.07;1.52;;;20.20;40.00;;;;;;5057160;28;19923;-73
2022/05/19 08:27:05;;;;;;;5.35;1.35;;;20.20;37.80;;;;;;5092184;28;20044;-73
2022/05/19 08:29:33;;;;;;;7.57;1.40;;;20.50;36.10;;;;;;5074504;28;20458;-77
2022/05/19 08:32:01;;;;;;;3.65;1.20;;;20.70;35.70;;;;;;5074240;28;20025;-73
2022/05/19 08:34:27;;;;;;;3.47;1.00;;;21.10;35.20;;;;;;5074764;28;20447;-73
2022/05/19 08:36:53;;;;;;;;;;;21.50;34.10;;;;;;5074864;28;20082;-73
2022/05/19 08:39:19;;;;;;;5.43;1.13;;;22.00;35.60;;;;;;5073575;28;19919;-76
2022/05/19 08:42:06;;;;;;;4.25;1.27;;;22.60;31.90;;;;;;5073594;28;20123;-77
2022/05/19 08:44:54;;;;;;;11.52;1.48;;;23.20;30.00;;;;;;5057661;28;20082;-73
2022/05/19 08:47:26;;;;;;;3.60;1.10;;;24.00;29.50;;;;;;5057212;28;20042;-77
2022/05/19 08:50:31;;;;;;;7.22;1.30;;;24.60;28.20;;;;;;5074276;28;20027;-73
2022/05/19 08:52:58;;;;;;;5.60;1.20;;;25.40;28.50;;;;;;5057356;28;20048;-78
2022/05/19 08:55:24;;;;;;;1.70;0.80;;;26.10;26.00;;;;;;5073057;28;20467;-73
2022/05/19 08:58:01;;;;;;;3.78;1.08;;;26.90;26.20;;;;;;5092268;28;20450;-73
2022/05/19 09:01:01;;;;;;;3.10;0.82;;;27.70;25.40;;;;;;5057101;28;20162;-73
2022/05/19 09:04:04;;;;;;;4.50;0.95;;;28.50;24.10;;;;;;5074106;28;20037;-79
2022/05/19 09:07:56;;;;;;;4.72;1.02;;;29.30;23.20;;;;;;5091826;28;20032;-73
2022/05/19 09:10:09;;;;;;;3.28;0.85;;;30.20;22.00;;;;;;5091695;28;20051;-74
2022/05/19 09:12:40;;;;;;;6.82;1.33;;;31.30;21.80;;;;;;5074127;28;20028;-74
2022/05/19 09:15:10;;;;;;;5.88;0.98;;;32.00;19.60;;;;;;5056979;28;20494;-73
2022/05/19 09:17:55;;;;;;;4.28;1.00;;;32.80;18.20;;;;;;5074160;28;20175;-73
2022/05/19 09:21:01;;;;;;;2.85;0.80;;;33.80;18.90;;;;;;5073816;28;20032;-78
2022/05/19 09:23:27;;;;;;;4.53;1.15;;;34.70;18.00;;;;;;5073622;28;20055;-74
2022/05/19 09:26:26;;;;;;;4.80;1.00;;;35.50;16.90;;;;;;5067902;28;20068;-78
2022/05/19 09:32:57;;;;;;;2.80;0.95;;;36.70;15.30;;;;;;5060140;28;20085;-73
2022/05/19 09:35:34;;;;;;;2.90;1.10;;;37.30;14.60;;;;;;5057399;28;20106;-77
2022/05/19 09:38:38;;;;;;;6.80;0.90;;;38.10;14.10;;;;;;5075330;28;20358;-74
2022/05/19 09:42:02;;;;;;;6.97;1.00;;;39.10;14.40;;;;;;5056065;28;20078;-76
2022/05/19 09:44:32;;;;;;;6.65;1.30;;;39.50;12.80;;;;;;5075009;28;20077;-74
2022/05/19 09:46:58;;;;;;;1.77;0.88;;;40.10;11.40;;;;;;5074898;28;20448;-77
2022/05/19 09:49:51;;;;;;;4.50;1.08;;;40.40;11.40;;;;;;5057316;28;20036;-74
2022/05/19 09:52:23;;;;;;;3.25;1.05;;;41.10;11.80;;;;;;5056794;28;20056;-73
2022/05/19 09:55:11;;;;;;;2.25;1.15;;;41.70;10.30;;;;;;5040087;28;20547;-77
2022/05/19 09:57:58;;;;;;;3.30;1.08;;;42.10;10.70;;;;;;5057164;28;20035;-73
2022/05/19 10:01:01;;;;;;;5.30;1.20;;;42.60;10.20;;;;;;5074519;28;20115;-78
2022/05/19 10:04:23;;;;;;;2.53;1.10;;;43.00;10.50;;;;;;5074755;28;20028;-73
2022/05/19 10:06:54;;;;;;;5.07;1.02;;;43.30;10.00;;;;;;5074504;28;20036;-73
2022/05/19 10:09:43;;;;;;;2.13;1.00;;;44.00;8.60;;;;;;5040356;28;20032;-76
2022/05/19 10:12:32;;;;;;;6.40;1.25;;;44.50;9.00;;;;;;5055895;28;20033;-73
2022/05/19 10:15:21;;;;;;;5.45;1.20;;;44.80;8.90;;;;;;5056812;28;20029;-73
2022/05/19 10:18:43;;;;;;;2.53;1.15;;;44.70;8.60;;;;;;5057019;28;20119;-74
2022/05/19 10:21:47;;;;;;;2.95;1.30;;;45.30;9.20;;;;;;5074355;28;20041;-76
2022/05/19 10:24:50;;;;;;;3.78;1.42;;;46.00;9.10;;;;;;5074733;28;20111;-73
2022/05/19 10:31:04;;;;;;;2.80;1.10;;;47.00;8.10;;;;;;5094318;28;20063;-76
2022/05/19 10:34:15;;;;;;;7.00;1.23;;;47.50;7.80;;;;;;5094464;28;20093;-73
2022/05/19 10:36:47;;;;;;;8.50;1.40;;;48.20;8.40;;;;;;5094000;28;20039;-73
2022/05/19 10:40:06;;;;;;;4.40;1.45;;;48.60;7.10;;;;;;5075992;28;20048;-75
2022/05/19 10:42:50;;;;;;;3.10;1.92;;;49.10;7.80;;;;;;5093576;28;20059;-73
2022/05/19 10:45:28;;;;;;;2.72;1.40;;;48.70;7.00;;;;;;5059027;28;20046;-73
2022/05/19 10:48:13;;;;;;;3.00;1.42;;;48.80;7.40;;;;;;5059338;28;20040;-73
2022/05/19 10:51:21;;;;;;;3.58;1.60;;;49.40;7.30;;;;;;5075661;28;20032;-73
2022/05/19 10:54:22;;;;;;;3.17;1.60;;;49.80;7.10;;;;;;5075919;28;20119;-73
2022/05/19 10:56:57;;;;;;;3.88;1.58;;;50.20;6.80;;;;;;5075098;28;20040;-75
2022/05/19 10:59:54;;;;;;;15.00;2.45;;;50.10;6.20;;;;;;5094248;28;20042;-76
2022/05/19 11:02:51;;;;;;;4.38;1.63;;;49.40;6.80;;;;;;5093482;28;20051;-76
2022/05/19 11:05:53;;;;;;;6.82;2.20;;;49.80;6.50;;;;;;5075558;28;20032;-73
2022/05/19 11:09:10;;;;;;;5.82;1.80;;;50.30;6.90;;;;;;5075539;28;20044;-73
2022/05/19 11:11:58;;;;;;;5.35;1.60;;;49.80;6.40;;;;;;5074846;28;20435;-74
2022/05/19 11:14:53;;;;;;;5.97;1.70;;;49.90;5.50;;;;;;5075733;28;20038;-75
2022/05/19 11:17:38;;;;;;;14.77;1.77;;;50.20;6.20;;;;;;5093418;28;20042;-73
2022/05/19 11:20:21;;;;;;;;;;;50.70;5.50;;;;;;5076091;28;20036;-75
2022/05/19 11:22:55;;;;;;;4.68;1.50;;;51.40;6.50;;;;;;5058787;28;20369;-77
2022/05/19 11:30:00;;;;;;;4.63;1.60;;;51.10;5.70;;;;;;5093857;28;20043;-73
2022/05/19 11:32:50;;;;;;;7.90;1.88;;;50.90;5.60;;;;;;5092994;28;20481;-74
2022/05/19 11:35:46;;;;;;;2.95;1.60;;;51.80;5.50;;;;;;5075181;28;20028;-73
2022/05/19 11:39:09;;;;;;;3.03;1.80;;;52.40;5.60;;;;;;5075342;28;20036;-74
2022/05/19 11:41:37;;;;;;;2.72;1.90;;;52.30;5.20;;;;;;5091845;28;20123;-76
2022/05/19 11:44:43;;;;;;;2.78;1.60;;;51.90;4.50;;;;;;5075110;28;20036;-75
2022/05/19 11:55:14;;;;;;;5.80;2.10;;;53.20;5.50;;;;;;5093123;28;20093;-74
2022/05/19 11:58:01;;;;;;;15.70;2.95;;;53.30;5.10;;;;;;5076660;28;20047;-75
2022/05/19 12:00:52;;;;;;;10.50;2.53;;;54.10;5.20;;;;;;5074614;28;20093;-74
2022/05/19 12:03:24;;;;;;;3.72;2.55;;;54.60;5.40;;;;;;5092834;28;20153;-73
2022/05/19 12:06:10;;;;;;;6.05;2.75;;;55.00;5.00;;;;;;5092480;28;20060;-74
2022/05/19 12:08:59;;;;;;;3.90;3.25;;;55.00;5.10;;;;;;5092558;28;20027;-76
2022/05/19 12:11:47;;;;;;;7.57;2.95;;;55.40;4.90;;;;;;5091494;28;20036;-73
2022/05/19 12:14:25;;;;;;;4.75;2.33;;;55.60;4.70;;;;;;5074805;28;20040;-76
2022/05/19 12:17:15;;;;;;;4.13;2.42;;;55.40;4.70;;;;;;5092412;28;20046;-73
2022/05/19 12:19:47;;;;;;;3.40;2.53;;;55.10;4.90;;;;;;5074874;28;20037;-76
2022/05/19 12:23:04;;;;;;;4.68;2.97;;;55.50;4.30;;;;;;5074665;28;20509;-73
2022/05/19 12:25:32;;;;;;;4.45;2.78;;;56.10;4.80;;;;;;5074260;28;20047;-75
2022/05/19 12:28:16;;;;;;;3.72;2.70;;;56.20;4.10;;;;;;5073649;28;20039;-74
2022/05/19 12:34:04;;;;;;;4.78;2.88;;;55.10;4.60;;;;;;5092718;28;20051;-73
2022/05/19 12:36:50;;;;;;;16.50;3.50;;;55.50;4.00;;;;;;5074174;28;20028;-76
2022/05/19 12:39:16;;;;;;;3.47;2.80;;;55.40;4.40;;;;;;5074772;28;20080;-76
2022/05/19 12:42:43;;;;;;;4.85;3.30;;;56.00;5.20;;;;;;5091201;28;20040;-73
2022/05/19 12:45:39;;;;;;;6.18;3.38;;;56.40;4.80;;;;;;5074186;28;20040;-76
2022/05/19 12:48:43;;;;;;;3.25;2.53;;;56.50;4.60;;;;;;5057556;28;20036;-74
2022/05/19 12:51:31;;;;;;;5.25;3.13;;;56.50;4.80;;;;;;5074206;28;20028;-73
2022/05/19 12:54:17;;;;;;;4.45;2.63;;;56.80;4.10;;;;;;5074088;28;20073;-76
2022/05/19 12:56:52;;;;;;;4.35;3.33;;;55.80;4.30;;;;;;5056365;28;20055;-73
2022/05/19 12:59:57;;;;;;;4.57;2.97;;;55.90;3.70;;;;;;5074408;28;20115;-73
2022/05/19 13:03:03;;;;;;;4.00;3.17;;;56.00;4.40;;;;;;5092034;28;20119;-73
2022/05/19 13:06:06;;;;;;;4.70;2.75;;;55.60;4.20;;;;;;5094357;28;20043;-76
2022/05/19 13:08:40;;;;;;;5.88;3.08;;;55.80;4.10;;;;;;5096295;28;20044;-73
2022/05/19 13:11:30;;;;;;;4.85;2.92;;;55.80;4.20;;;;;;5095869;28;20115;-76
2022/05/19 13:14:05;;;;;;;7.72;3.45;;;55.80;4.40;;;;;;5077987;28;20656;-74
2022/05/19 13:16:39;;;;;;;10.75;6.32;;;56.00;4.80;;;;;;5077572;28;20289;-73
2022/05/19 13:19:42;;;;;;;;;;;56.00;4.80;;;;;;5061791;28;20545;-73
2022/05/19 13:22:21;;;;;;;3.85;2.90;;;55.40;5.00;;;;;;5077587;28;19916;-76
2022/05/19 13:24:48;;;;;;;3.78;2.17;;;55.20;4.30;;;;;;5077633;28;20036;-73
2022/05/19 13:30:45;;;;;;;26.13;3.83;;;54.80;4.40;;;;;;5080018;28;20128;-76
2022/05/19 13:33:20;;;;;;;38.90;3.30;;;54.70;4.70;;;;;;5077466;28;20024;-76
2022/05/19 13:35:46;;;;;;;4.55;1.98;;;54.30;4.50;;;;;;5077078;28;20101;-77
2022/05/19 13:38:32;;;;;;;6.22;2.60;;;54.60;4.10;;;;;;5060853;28;20363;-73
2022/05/19 13:40:59;;;;;;;6.10;2.92;;;54.80;4.00;;;;;;5095198;28;20028;-77
2022/05/19 13:43:30;;;;;;;5.57;2.42;;;54.70;4.20;;;;;;5059733;28;20071;-77
2022/05/19 13:46:19;;;;;;;2.95;2.15;;;54.70;4.30;;;;;;5077023;28;20028;-73
2022/05/19 13:49:07;;;;;;;7.35;2.25;;;54.50;4.50;;;;;;5077010;28;20095;-74
2022/05/19 13:51:55;;;;;;;2.67;2.00;;;53.80;4.30;;;;;;5076957;28;20032;-77
2022/05/19 13:54:47;;;;;;;4.78;1.80;;;52.70;4.00;;;;;;5060678;28;20035;-76
2022/05/19 13:57:34;;;;;;;6.65;1.90;;;52.00;4.10;;;;;;5093958;28;20435;-77
2022/05/19 14:00:11;;;;;;;4.75;1.95;;;51.30;4.40;;;;;;5074508;28;20032;-78
2022/05/19 14:05:44;;;;;;;3.00;1.65;;;47.50;6.00;;;;;;5073524;28;20153;-74
2022/05/19 14:08:32;;;;;;;6.15;2.08;;;45.10;7.10;;;;;;5040318;28;20033;-78
2022/05/19 14:11:05;;;;;;;2.30;1.23;;;43.70;7.70;;;;;;5074422;28;20056;-74
2022/05/19 14:13:34;;;;;;;24.92;2.85;;;42.40;7.60;;;;;;5087815;28;20111;-73
2022/05/19 14:16:22;;;;;;;7.53;1.83;;;41.30;8.50;;;;;;5075960;28;20139;-74
2022/05/19 14:19:28;;;;;;;5.25;1.95;;;40.30;8.40;;;;;;5076690;28;20028;-74
2022/05/19 14:21:54;;;;;;;2.25;1.15;;;39.60;9.30;;;;;;5094681;28;20032;-76
2022/05/19 14:24:26;;;;;;;9.00;2.30;;;39.00;9.80;;;;;;5094966;28;20540;-74
2022/05/19 14:26:56;;;;;;;5.00;1.38;;;38.30;10.10;;;;;;5094034;28;20072;-74